Rocky Point, North Carolina
Current Conditions -  °F | °C
As of 8:56 AM on Wednesday 26 Nov 2014 (Local Time) from KILM Reporting Station
Thunderstorm Thunderstorm  
Wind Chill: 56°   Ceiling: 600
Heat Index: 56°   Visibility: 1.2mi
Dew Point: 55°   Wind: 21mph
Humidity: 97%   Direction: 290°WNW
Pressure: 29.77"   Gusts: NA
Location:  34.43°N, 77.89°W
Report Text: KILM 261356Z 29018KT 1 1/4SM +TSRA BR BKN006 OVC015 13/13 A2977 RMK AO2 LTG DSNT SW P0003 T01330128
Loading
Personal Weather Stations






























Interactive Weather Map New forecast layout! Learn more

10-Day Weather Forecast

Advertisements
Track Severe Weather on mobile